createdAt,value
2022-12-17T00:01:09.755Z,3.27
2022-12-17T00:03:56.983Z,3.43
2022-12-17T00:06:42.925Z,3.72
2022-12-17T00:09:28.913Z,3.49
2022-12-17T00:12:14.890Z,3.54
2022-12-17T00:15:00.807Z,3.30
2022-12-17T00:17:46.896Z,3.25
2022-12-17T00:20:33.487Z,2.94
2022-12-17T00:23:21.023Z,2.72
2022-12-17T00:26:13.998Z,2.64
2022-12-17T00:29:00.504Z,2.62
2022-12-17T00:31:48.950Z,3.04
2022-12-17T00:34:34.698Z,2.96
2022-12-17T00:37:21.195Z,2.99
2022-12-17T00:40:07.038Z,3.03
2022-12-17T00:42:53.144Z,2.83
2022-12-17T00:45:42.163Z,2.75
2022-12-17T00:48:28.279Z,2.82
2022-12-17T00:51:14.257Z,2.50
2022-12-17T00:54:00.626Z,2.50
2022-12-17T00:56:46.555Z,2.58
2022-12-17T00:59:32.576Z,2.51
2022-12-17T01:02:18.975Z,2.59
2022-12-17T01:05:05.403Z,2.81
2022-12-17T01:07:51.465Z,2.57
2022-12-17T01:10:38.055Z,2.63
2022-12-17T01:13:24.049Z,2.68
2022-12-17T01:16:10.250Z,3.15
2022-12-17T01:18:57.016Z,3.03
2022-12-17T01:21:42.918Z,2.80
2022-12-17T01:24:28.984Z,2.72
2022-12-17T01:27:15.103Z,2.81
2022-12-17T01:30:01.119Z,3.15
2022-12-17T01:32:47.171Z,2.95
2022-12-17T01:35:33.227Z,3.00
2022-12-17T01:38:19.283Z,2.91
2022-12-17T01:41:10.854Z,2.90
2022-12-17T01:43:57.746Z,2.62
2022-12-17T01:46:44.977Z,2.66
2022-12-17T01:49:31.769Z,2.58
2022-12-17T01:52:18.784Z,2.77
2022-12-17T01:55:05.508Z,2.60
2022-12-17T01:57:51.462Z,2.71
2022-12-17T02:00:38.635Z,2.53
2022-12-17T02:03:32.619Z,2.52
2022-12-17T02:06:43.815Z,2.67
2022-12-17T02:09:55.068Z,2.91
2022-12-17T02:12:47.986Z,2.50
2022-12-17T02:16:03.344Z,2.67
2022-12-17T02:18:56.099Z,2.85
2022-12-17T02:21:43.612Z,2.84
2022-12-17T02:24:44.504Z,2.43
2022-12-17T02:27:32.376Z,2.61
2022-12-17T02:30:23.534Z,2.62
2022-12-17T02:33:10.304Z,2.52
2022-12-17T02:36:13.287Z,2.27
2022-12-17T02:38:59.311Z,2.36
2022-12-17T02:42:06.455Z,2.69
2022-12-17T02:44:53.780Z,2.88
2022-12-17T02:47:40.999Z,2.80
2022-12-17T02:50:27.434Z,2.79
2022-12-17T02:53:14.259Z,3.23
2022-12-17T02:56:01.676Z,3.27
2022-12-17T02:58:49.875Z,3.06
2022-12-17T03:01:36.315Z,2.62
2022-12-17T03:04:23.463Z,2.10
2022-12-17T03:07:09.568Z,2.49
2022-12-17T03:09:56.447Z,2.96
2022-12-17T03:12:42.930Z,2.88
2022-12-17T03:15:28.847Z,3.12
2022-12-17T03:18:15.062Z,2.90
2022-12-17T03:21:01.071Z,2.90
2022-12-17T03:23:46.935Z,3.13
2022-12-17T03:26:33.591Z,3.34
2022-12-17T03:29:19.513Z,2.97
2022-12-17T03:32:05.503Z,2.88
2022-12-17T03:34:51.471Z,3.28
2022-12-17T03:37:37.378Z,3.24
2022-12-17T03:40:23.924Z,3.19
2022-12-17T03:43:09.842Z,2.98
2022-12-17T03:45:55.871Z,2.77
2022-12-17T03:48:42.300Z,2.91
2022-12-17T03:51:28.235Z,2.48
2022-12-17T03:54:14.179Z,2.54
2022-12-17T03:57:00.190Z,2.55
2022-12-17T03:59:46.177Z,2.55
2022-12-17T04:02:32.353Z,1.87
2022-12-17T04:05:20.488Z,2.26
2022-12-17T04:08:06.838Z,2.07
2022-12-17T04:10:53.238Z,1.88
2022-12-17T04:13:41.324Z,2.03
2022-12-17T04:16:27.880Z,1.98
2022-12-17T04:19:13.959Z,1.97
2022-12-17T04:22:00.286Z,1.97
2022-12-17T04:24:46.503Z,1.92
2022-12-17T04:27:32.703Z,1.73
2022-12-17T04:30:18.785Z,1.42
2022-12-17T04:33:04.707Z,1.34
2022-12-17T04:35:50.832Z,1.47
2022-12-17T04:38:36.856Z,1.47
2022-12-17T04:41:23.199Z,1.54
2022-12-17T04:44:09.123Z,1.15
2022-12-17T04:46:54.959Z,1.12
2022-12-17T04:49:41.407Z,1.22
2022-12-17T04:52:27.386Z,1.35
2022-12-17T04:55:13.359Z,1.12
2022-12-17T04:57:59.446Z,1.06
2022-12-17T05:00:45.433Z,1.22
2022-12-17T05:03:33.574Z,1.29
2022-12-17T05:06:20.714Z,1.63
2022-12-17T05:09:06.627Z,1.23
2022-12-17T05:11:52.897Z,1.46
2022-12-17T05:14:38.990Z,1.16
2022-12-17T05:17:25.126Z,1.02
2022-12-17T05:20:11.205Z,1.35
2022-12-17T05:22:57.259Z,1.36
2022-12-17T05:25:43.122Z,1.19
2022-12-17T05:28:29.163Z,1.11
2022-12-17T05:31:15.264Z,1.10
2022-12-17T05:34:01.367Z,1.20
2022-12-17T05:36:47.382Z,0.87
2022-12-17T05:39:33.953Z,1.36
2022-12-17T05:42:19.811Z,1.19
2022-12-17T05:45:05.896Z,1.08
2022-12-17T05:47:51.824Z,1.26
2022-12-17T05:50:37.790Z,1.26
2022-12-17T05:53:24.543Z,1.36
2022-12-17T05:56:11.351Z,1.36
2022-12-17T05:58:58.014Z,1.57
2022-12-17T06:01:44.142Z,1.33
2022-12-17T06:04:30.414Z,1.04
2022-12-17T06:07:16.330Z,1.26
2022-12-17T06:10:02.387Z,1.21
2022-12-17T06:12:48.420Z,1.25
2022-12-17T06:15:34.520Z,0.96
2022-12-17T06:18:20.535Z,1.49
2022-12-17T06:21:07.210Z,1.47
2022-12-17T06:23:53.267Z,1.13
2022-12-17T06:26:39.766Z,1.17
2022-12-17T06:29:25.818Z,1.29
2022-12-17T06:32:11.928Z,1.29
2022-12-17T06:34:57.916Z,1.32
2022-12-17T06:37:44.341Z,1.40
2022-12-17T06:40:30.434Z,1.48
2022-12-17T06:43:16.586Z,1.69
2022-12-17T06:46:02.852Z,1.54
2022-12-17T06:48:48.866Z,1.30
2022-12-17T06:51:34.715Z,1.20
2022-12-17T06:54:20.680Z,1.37
2022-12-17T06:57:06.681Z,1.26
2022-12-17T06:59:52.708Z,0.86
2022-12-17T07:02:38.788Z,0.93
2022-12-17T07:05:25.035Z,1.11
2022-12-17T07:08:18.181Z,1.04
2022-12-17T07:11:04.521Z,0.71
2022-12-17T07:13:50.331Z,0.98
2022-12-17T07:16:36.797Z,1.02
2022-12-17T07:19:27.044Z,0.76
2022-12-17T07:22:14.904Z,0.61
2022-12-17T07:25:00.744Z,0.61
2022-12-17T07:27:46.903Z,0.54
2022-12-17T07:30:49.208Z,1.34
2022-12-17T07:33:38.985Z,1.15
2022-12-17T07:36:25.167Z,1.35
2022-12-17T07:39:11.764Z,1.01
2022-12-17T07:41:57.658Z,1.12
2022-12-17T07:44:43.596Z,0.92
2022-12-17T07:47:29.708Z,0.85
2022-12-17T07:50:15.650Z,0.80
2022-12-17T07:53:01.619Z,0.64
2022-12-17T07:55:47.685Z,0.45
2022-12-17T07:58:33.640Z,0.68
2022-12-17T08:01:20.627Z,0.72
2022-12-17T08:04:07.101Z,0.89
2022-12-17T08:06:58.401Z,0.96
2022-12-17T08:09:46.996Z,1.09
2022-12-17T08:12:34.074Z,1.22
2022-12-17T08:15:40.239Z,1.07
2022-12-17T08:18:27.016Z,1.04
2022-12-17T08:21:13.495Z,1.13
2022-12-17T08:23:59.261Z,1.23
2022-12-17T08:26:48.190Z,1.07
2022-12-17T08:29:34.193Z,1.28
2022-12-17T08:32:20.323Z,1.24
2022-12-17T08:35:06.339Z,1.27
2022-12-17T08:37:52.584Z,1.16
2022-12-17T08:40:38.737Z,1.11
2022-12-17T08:43:24.983Z,1.35
2022-12-17T08:46:11.472Z,1.29
2022-12-17T08:48:57.949Z,1.37
2022-12-17T08:51:44.422Z,1.48
2022-12-17T08:54:30.248Z,1.33
2022-12-17T08:57:26.985Z,1.21
2022-12-17T09:00:17.175Z,1.35
2022-12-17T09:03:03.437Z,1.32
2022-12-17T09:05:49.918Z,1.16
2022-12-17T09:08:35.848Z,1.02
2022-12-17T09:11:21.861Z,1.05
2022-12-17T09:14:07.831Z,1.05
2022-12-17T09:16:54.367Z,1.16
2022-12-17T09:19:40.268Z,1.46
2022-12-17T09:22:26.396Z,1.69
2022-12-17T09:25:12.382Z,1.62
2022-12-17T09:27:58.982Z,1.44
2022-12-17T09:30:44.924Z,1.18
2022-12-17T09:33:35.771Z,1.14
2022-12-17T09:36:25.208Z,1.16
2022-12-17T09:39:11.242Z,1.32
2022-12-17T09:42:29.516Z,1.32
2022-12-17T09:45:35.010Z,1.07
2022-12-17T09:48:58.539Z,1.18
2022-12-17T09:51:46.521Z,1.53
2022-12-17T09:55:01.659Z,1.38
2022-12-17T09:57:53.999Z,1.40
2022-12-17T10:01:01.074Z,1.34
2022-12-17T10:03:48.329Z,1.66
2022-12-17T10:06:43.239Z,1.23
2022-12-17T10:09:33.043Z,1.40
2022-12-17T10:12:27.564Z,1.07
2022-12-17T10:15:13.712Z,1.47
2022-12-17T10:18:00.076Z,1.71
2022-12-17T10:20:52.718Z,1.93
2022-12-17T10:23:52.168Z,1.72
2022-12-17T10:26:50.057Z,1.87
2022-12-17T10:29:47.423Z,1.98
2022-12-17T10:32:34.691Z,2.22
2022-12-17T10:35:42.417Z,2.13
2022-12-17T10:38:39.133Z,1.99
2022-12-17T10:41:49.863Z,2.22
2022-12-17T10:44:43.952Z,2.68
2022-12-17T10:47:32.000Z,2.39
2022-12-17T10:50:20.386Z,2.42
2022-12-17T10:53:06.848Z,2.61
2022-12-17T10:55:53.889Z,2.79
2022-12-17T10:58:39.870Z,2.56
2022-12-17T11:01:29.825Z,2.55
2022-12-17T11:04:17.423Z,2.50
2022-12-17T11:07:08.543Z,2.64
2022-12-17T11:10:09.184Z,2.30
2022-12-17T11:13:03.111Z,2.63
2022-12-17T11:16:01.531Z,2.55
2022-12-17T11:19:25.882Z,2.79
2022-12-17T11:22:15.288Z,2.98
2022-12-17T11:25:08.185Z,2.65
2022-12-17T11:28:00.302Z,2.55
2022-12-17T11:30:47.168Z,2.54
2022-12-17T11:33:40.775Z,2.50
2022-12-17T11:36:44.108Z,3.06
2022-12-17T11:39:34.850Z,2.96
2022-12-17T11:42:30.537Z,3.25
2022-12-17T11:45:24.654Z,2.66
2022-12-17T11:48:20.214Z,2.35
2022-12-17T11:51:21.495Z,2.45
2022-12-17T11:54:16.900Z,2.40
2022-12-17T11:57:06.839Z,2.41
2022-12-17T12:00:45.610Z,2.56
2022-12-17T12:03:53.769Z,2.75
2022-12-17T12:07:06.459Z,2.56
2022-12-17T12:10:03.674Z,2.20
2022-12-17T12:12:58.755Z,2.19
2022-12-17T12:15:50.495Z,2.20
2022-12-17T12:19:07.335Z,2.36
2022-12-17T12:21:58.876Z,2.25
2022-12-17T12:25:02.202Z,1.87
2022-12-17T12:28:31.808Z,1.78
2022-12-17T12:31:48.371Z,2.01
2022-12-17T12:34:42.344Z,2.33
2022-12-17T12:37:33.576Z,2.34
2022-12-17T12:40:29.918Z,2.24
2022-12-17T12:43:23.096Z,2.13
2022-12-17T12:46:18.732Z,2.04
2022-12-17T12:49:53.128Z,2.13
2022-12-17T12:52:41.791Z,2.30
2022-12-17T12:55:27.744Z,2.07
2022-12-17T12:58:17.693Z,2.25
2022-12-17T13:01:06.958Z,2.10
2022-12-17T13:03:59.363Z,1.88
2022-12-17T13:06:54.289Z,2.06
2022-12-17T13:09:34.789Z,1.87
2022-12-17T13:12:02.692Z,1.70
2022-12-17T13:14:55.029Z,1.67
2022-12-17T13:17:34.675Z,1.81
2022-12-17T13:20:25.088Z,1.63
2022-12-17T13:23:09.822Z,1.89
2022-12-17T13:25:37.589Z,1.83
2022-12-17T13:28:05.737Z,1.81
2022-12-17T13:30:38.366Z,1.57
2022-12-17T13:33:34.656Z,1.42
2022-12-17T13:36:05.035Z,1.21
2022-12-17T13:38:55.630Z,1.34
2022-12-17T13:41:29.675Z,1.23
2022-12-17T13:43:59.676Z,1.51
2022-12-17T13:46:47.405Z,1.46
2022-12-17T13:49:27.070Z,1.43
2022-12-17T13:52:16.855Z,1.26
2022-12-17T13:54:44.842Z,1.46
2022-12-17T13:57:20.880Z,1.64
2022-12-17T13:59:56.913Z,1.87
2022-12-17T14:02:36.374Z,1.91
2022-12-17T14:05:23.700Z,1.87
2022-12-17T14:07:51.492Z,2.07
2022-12-17T14:10:19.462Z,1.96
2022-12-17T14:12:47.403Z,1.72
2022-12-17T14:15:24.395Z,1.58
2022-12-17T14:17:52.899Z,1.60
2022-12-17T14:20:29.827Z,1.75
2022-12-17T14:23:05.277Z,1.90
2022-12-17T14:25:36.271Z,1.69
2022-12-17T14:28:07.121Z,1.33
2022-12-17T14:31:17.368Z,1.36
2022-12-17T14:33:31.832Z,1.23
2022-12-17T14:36:05.828Z,1.47
2022-12-17T14:38:42.951Z,1.36
2022-12-17T14:41:37.752Z,1.06
2022-12-17T14:44:06.291Z,1.26
2022-12-17T14:46:34.710Z,1.25
2022-12-17T14:49:04.896Z,1.43
2022-12-17T14:51:36.468Z,1.09
2022-12-17T14:54:29.197Z,1.34
2022-12-17T14:56:58.617Z,1.32
2022-12-17T14:59:34.676Z,1.51
2022-12-17T15:02:28.319Z,1.36
2022-12-17T15:04:57.180Z,1.58
2022-12-17T15:07:27.110Z,1.44
2022-12-17T15:09:55.276Z,1.32
2022-12-17T15:12:24.411Z,1.47
2022-12-17T15:14:52.310Z,1.67
2022-12-17T15:17:19.688Z,1.58
2022-12-17T15:19:51.329Z,1.57
2022-12-17T15:22:23.351Z,1.27
2022-12-17T15:24:50.734Z,1.08
2022-12-17T15:27:18.043Z,0.82
2022-12-17T15:29:46.044Z,0.88
2022-12-17T15:32:24.032Z,0.59
2022-12-17T15:34:51.652Z,0.63
2022-12-17T15:37:25.355Z,0.69
2022-12-17T15:39:56.406Z,0.47
2022-12-17T15:42:42.499Z,0.67
2022-12-17T15:45:10.239Z,0.65
2022-12-17T15:47:38.287Z,0.77
2022-12-17T15:50:06.079Z,0.95
2022-12-17T15:52:33.677Z,0.84
2022-12-17T15:55:01.007Z,0.90
2022-12-17T15:57:28.327Z,1.21
2022-12-17T15:59:55.946Z,1.08
2022-12-17T16:02:23.434Z,1.03
2022-12-17T16:04:51.156Z,0.79
2022-12-17T16:07:26.648Z,0.83
2022-12-17T16:10:01.641Z,1.25
2022-12-17T16:12:32.607Z,1.25
2022-12-17T16:15:03.618Z,0.87
2022-12-17T16:17:31.130Z,0.98
2022-12-17T16:19:58.586Z,0.94
2022-12-17T16:22:27.416Z,0.68
2022-12-17T16:24:54.931Z,0.94
2022-12-17T16:27:22.559Z,0.84
2022-12-17T16:29:50.185Z,0.87
2022-12-17T16:32:17.911Z,0.93
2022-12-17T16:34:45.331Z,1.16
2022-12-17T16:37:12.959Z,0.76
2022-12-17T16:39:40.345Z,0.61
2022-12-17T16:42:11.461Z,0.89
2022-12-17T16:44:39.085Z,0.98
2022-12-17T16:47:06.560Z,1.07
2022-12-17T16:49:34.146Z,1.12
2022-12-17T16:52:03.359Z,0.84
2022-12-17T16:54:32.475Z,0.56
2022-12-17T16:57:02.809Z,0.62
2022-12-17T16:59:30.830Z,0.95
2022-12-17T17:01:58.302Z,0.78
2022-12-17T17:04:28.813Z,0.91
2022-12-17T17:06:57.184Z,0.88
2022-12-17T17:09:25.303Z,0.77
2022-12-17T17:11:55.338Z,1.23
2022-12-17T17:14:24.030Z,1.17
2022-12-17T17:16:52.037Z,1.09
2022-12-17T17:19:19.688Z,1.34
2022-12-17T17:21:53.954Z,1.06
2022-12-17T17:24:25.390Z,0.86
2022-12-17T17:26:54.322Z,1.02
2022-12-17T17:29:22.387Z,0.97
2022-12-17T17:34:38.202Z,1.06
2022-12-17T17:37:05.711Z,1.18
2022-12-17T17:39:34.241Z,1.05
2022-12-17T17:42:02.024Z,1.20
2022-12-17T17:44:29.391Z,1.05
2022-12-17T17:46:56.848Z,1.40
2022-12-17T17:49:24.528Z,1.10
2022-12-17T17:52:09.065Z,0.87
2022-12-17T17:54:39.473Z,1.11
2022-12-17T17:57:08.283Z,1.41
2022-12-17T17:59:35.655Z,1.52
2022-12-17T18:02:03.616Z,1.34
2022-12-17T18:04:31.878Z,1.30
2022-12-17T18:09:46.810Z,1.31
2022-12-17T18:12:32.786Z,1.40
2022-12-17T18:15:17.792Z,1.76
2022-12-17T18:17:49.579Z,1.68
2022-12-17T18:20:17.398Z,1.51
2022-12-17T18:22:46.349Z,1.40
2022-12-17T18:25:15.658Z,1.45
2022-12-17T18:27:43.871Z,1.36
2022-12-17T18:30:12.023Z,1.54
2022-12-17T18:32:39.470Z,1.69
2022-12-17T18:35:07.580Z,1.79
2022-12-17T18:37:34.875Z,1.92
2022-12-17T18:40:02.577Z,2.18
2022-12-17T18:42:48.902Z,1.88
2022-12-17T18:45:16.651Z,1.48
2022-12-17T18:47:44.746Z,1.86
2022-12-17T18:50:13.026Z,1.98
2022-12-17T18:52:41.604Z,2.05
2022-12-17T18:55:09.232Z,2.29
2022-12-17T18:57:36.577Z,2.12
2022-12-17T19:00:04.804Z,2.25
2022-12-17T19:02:32.504Z,2.21
2022-12-17T19:04:59.883Z,2.18
2022-12-17T19:07:27.264Z,2.23
2022-12-17T19:09:54.840Z,2.05
2022-12-17T19:12:22.158Z,2.02
2022-12-17T19:14:49.524Z,2.07
2022-12-17T19:17:17.190Z,2.14
2022-12-17T19:19:44.518Z,2.18
2022-12-17T19:22:11.839Z,2.26
2022-12-17T19:24:39.434Z,2.11
2022-12-17T19:27:06.766Z,1.94
2022-12-17T19:29:34.781Z,2.07
2022-12-17T19:32:02.522Z,1.73
2022-12-17T19:34:29.941Z,1.69
2022-12-17T19:36:57.283Z,1.85
2022-12-17T19:39:24.936Z,1.51
2022-12-17T19:41:52.411Z,1.41
2022-12-17T19:44:20.905Z,1.57
2022-12-17T19:46:48.506Z,1.30
2022-12-17T19:49:16.526Z,0.93
2022-12-17T19:51:44.773Z,1.04
2022-12-17T19:54:14.739Z,1.34
2022-12-17T19:56:43.647Z,1.02
2022-12-17T19:59:11.691Z,1.71
2022-12-17T20:01:41.658Z,1.76
2022-12-17T20:04:14.180Z,1.25
2022-12-17T20:06:42.459Z,1.40
2022-12-17T20:09:10.401Z,1.44
2022-12-17T20:11:37.877Z,1.48
2022-12-17T20:14:13.107Z,1.59
2022-12-17T20:16:43.620Z,1.76
2022-12-17T20:19:13.683Z,1.85
2022-12-17T20:21:41.503Z,1.70
2022-12-17T20:24:09.698Z,1.61
2022-12-17T20:26:37.171Z,1.77
2022-12-17T20:29:05.757Z,1.76
2022-12-17T20:31:33.587Z,1.35
2022-12-17T20:34:03.421Z,1.25
2022-12-17T20:36:31.072Z,1.65
2022-12-17T20:38:58.856Z,1.14
2022-12-17T20:41:28.255Z,1.33
2022-12-17T20:43:56.546Z,1.22
2022-12-17T20:46:24.924Z,1.34
2022-12-17T20:48:52.822Z,1.56
2022-12-17T20:51:23.680Z,1.22
2022-12-17T20:53:52.457Z,1.31
2022-12-17T20:56:26.624Z,1.22
2022-12-17T20:59:02.510Z,1.07
2022-12-17T21:01:32.526Z,0.85
2022-12-17T21:04:00.999Z,0.68
2022-12-17T21:06:39.391Z,0.65
2022-12-17T21:09:07.471Z,0.88
2022-12-17T21:11:36.699Z,0.96
2022-12-17T21:14:09.781Z,0.59
2022-12-17T21:16:38.443Z,0.81
2022-12-17T21:19:07.228Z,0.92
2022-12-17T21:21:37.315Z,1.02
2022-12-17T21:24:05.777Z,1.06
2022-12-17T21:26:36.222Z,1.11
2022-12-17T21:29:05.854Z,0.64
2022-12-17T21:31:37.514Z,0.76
2022-12-17T21:34:06.443Z,0.87
2022-12-17T21:36:34.624Z,0.87
2022-12-17T21:39:08.714Z,0.99
2022-12-17T21:41:44.631Z,0.97
2022-12-17T21:44:13.358Z,1.37
2022-12-17T21:46:42.553Z,1.46
2022-12-17T21:49:10.700Z,1.57
2022-12-17T21:51:38.242Z,1.78
2022-12-17T21:54:08.394Z,1.76
2022-12-17T21:56:36.539Z,1.52
2022-12-17T21:59:03.965Z,2.00
2022-12-17T22:01:33.722Z,1.98
2022-12-17T22:04:02.867Z,1.89
2022-12-17T22:06:36.369Z,1.72
2022-12-17T22:09:29.815Z,1.93
2022-12-17T22:12:24.498Z,1.85
2022-12-17T22:14:52.267Z,1.82
2022-12-17T22:17:20.124Z,1.35
2022-12-17T22:19:47.570Z,1.09
2022-12-17T22:22:15.203Z,1.30
2022-12-17T22:24:42.599Z,1.17
2022-12-17T22:27:10.006Z,1.08
2022-12-17T22:29:56.205Z,0.50
2022-12-17T22:32:42.295Z,0.56
2022-12-17T22:36:22.048Z,0.28
2022-12-17T22:41:06.144Z,0.11
2022-12-17T22:44:31.889Z,0.18
2022-12-17T22:44:41.330Z,0.12
2022-12-17T22:46:22.839Z,-0.10
2022-12-17T22:48:50.222Z,-0.21
2022-12-17T22:51:25.325Z,-0.55
2022-12-17T22:54:09.482Z,-0.41
2022-12-17T22:56:55.277Z,-0.23
2022-12-17T22:59:26.042Z,-0.38
2022-12-17T23:01:53.597Z,-0.07
2022-12-17T23:04:21.026Z,-0.32
2022-12-17T23:06:48.741Z,-0.15
2022-12-17T23:09:21.082Z,0.18
2022-12-17T23:11:49.497Z,0.48
2022-12-17T23:14:17.509Z,0.52
2022-12-17T23:16:45.010Z,0.21
2022-12-17T23:19:12.913Z,0.18
2022-12-17T23:21:40.207Z,0.57
2022-12-17T23:24:07.971Z,0.68
2022-12-17T23:26:36.612Z,0.86
2022-12-17T23:29:07.782Z,0.74
2022-12-17T23:31:38.696Z,0.97
2022-12-17T23:34:06.524Z,1.16
2022-12-17T23:36:34.164Z,0.90
2022-12-17T23:39:01.572Z,1.24
2022-12-17T23:41:30.326Z,1.14
2022-12-17T23:43:58.461Z,1.35
2022-12-17T23:46:27.713Z,1.42
2022-12-17T23:48:55.712Z,1.40
2022-12-17T23:51:23.898Z,1.42
2022-12-17T23:53:51.261Z,1.43
2022-12-17T23:56:24.415Z,1.26
2022-12-17T23:58:53.917Z,1.19
